Time;durP1;ratioP1;P1;durP2;ratioP2;P2;SDS_P1;SDS_P2;PMS_P1;PMS_P2;Temp;Humidity;BMP_temperature;BMP_pressure;BME280_temperature;BME280_humidity;BME280_pressure;Samples;Min_cycle;Max_cycle;Signal;HPM_P1;HPM_P2
2022/05/10 00:02:11;;;;;;;6.93;6.23;;;14.20;95.50;;;;;;5063381;28;20618;-71
2022/05/10 00:04:57;;;;;;;7.33;5.73;;;14.10;95.70;;;;;;5058805;28;20454;-71
2022/05/10 00:07:43;;;;;;;7.20;6.00;;;14.10;95.90;;;;;;5065321;28;20461;-71
2022/05/10 00:10:28;;;;;;;7.60;6.20;;;14.10;95.90;;;;;;5063069;28;20463;-71
2022/05/10 00:13:14;;;;;;;6.53;5.57;;;14.10;95.90;;;;;;5061337;28;20534;-71
2022/05/10 00:16:00;;;;;;;7.90;6.80;;;14.00;95.80;;;;;;5062929;28;20450;-71
2022/05/10 00:18:48;;;;;;;7.93;7.00;;;13.90;96.10;;;;;;5062635;28;20470;-71
2022/05/10 00:21:34;;;;;;;7.73;6.70;;;13.80;97.20;;;;;;5063576;28;20442;-71
2022/05/10 00:24:19;;;;;;;9.80;6.73;;;13.80;98.10;;;;;;5058340;28;20523;-70
2022/05/10 00:27:05;;;;;;;8.83;6.70;;;13.70;98.70;;;;;;5062198;28;20462;-71
2022/05/10 00:29:51;;;;;;;7.87;6.40;;;13.60;99.80;;;;;;5065401;28;20492;-71
2022/05/10 00:32:39;;;;;;;8.70;6.87;;;13.60;99.90;;;;;;5065834;28;20917;-71
2022/05/10 00:35:29;;;;;;;7.17;6.47;;;13.60;99.90;;;;;;5062868;28;20447;-71
2022/05/10 00:38:15;;;;;;;14.60;7.20;;;13.70;99.90;;;;;;5060651;28;20438;-71
2022/05/10 00:41:07;;;;;;;8.57;5.93;;;13.70;99.90;;;;;;5063737;28;20442;-71
2022/05/10 00:43:56;;;;;;;6.97;5.87;;;13.70;99.90;;;;;;5057698;28;20459;-71
2022/05/10 00:46:46;;;;;;;7.43;6.03;;;13.80;99.90;;;;;;5067312;28;20454;-72
2022/05/10 00:49:37;;;;;;;10.73;6.20;;;13.70;99.90;;;;;;5065163;28;20447;-72
2022/05/10 00:52:30;;;;;;;9.73;6.20;;;13.70;99.80;;;;;;5060512;28;20466;-72
2022/05/10 00:55:20;;;;;;;10.10;5.80;;;13.60;99.80;;;;;;5064404;28;20427;-72
2022/05/10 00:58:18;;;;;;;7.63;6.37;;;13.50;99.90;;;;;;5096796;22;20567;-89
2022/05/10 01:01:05;;;;;;;9.00;5.87;;;13.40;99.90;;;;;;5103165;28;20575;-89
2022/05/10 01:03:54;;;;;;;8.73;6.50;;;13.40;99.90;;;;;;5080518;28;20469;-91
2022/05/10 01:06:46;;;;;;;8.40;6.20;;;13.40;99.90;;;;;;5078140;28;20974;-90
2022/05/10 01:09:41;;;;;;;6.93;5.73;;;13.30;99.90;;;;;;5083531;28;21020;-89
2022/05/10 01:12:33;;;;;;;7.00;6.30;;;13.30;99.90;;;;;;5098238;22;20887;-79
2022/05/10 01:15:22;;;;;;;6.87;5.90;;;13.40;99.90;;;;;;5089161;28;20458;-78
2022/05/10 01:18:08;;;;;;;6.70;6.00;;;13.40;99.90;;;;;;5089191;28;20470;-77
2022/05/10 01:21:00;;;;;;;7.20;6.47;;;13.30;99.90;;;;;;5090229;28;20421;-75
2022/05/10 01:24:17;;;;;;;10.93;6.60;;;13.30;99.90;;;;;;5086897;28;20551;-78
2022/05/10 01:27:18;;;;;;;7.30;5.57;;;13.30;99.90;;;;;;5089193;28;20434;-78
2022/05/10 01:30:08;;;;;;;6.80;6.07;;;13.30;99.90;;;;;;5088596;28;20437;-78
2022/05/10 01:36:27;;;;;;;7.43;5.70;;;13.20;99.90;;;;;;5087987;28;20434;-77
2022/05/10 01:39:20;;;;;;;8.27;6.73;;;13.20;99.90;;;;;;5090834;28;20917;-78
2022/05/10 01:42:10;;;;;;;6.80;6.10;;;13.20;99.90;;;;;;5088017;28;20536;-77
2022/05/10 01:45:01;;;;;;;7.93;6.30;;;13.20;99.90;;;;;;5090486;28;20986;-78
2022/05/10 01:47:51;;;;;;;10.50;6.30;;;13.10;99.90;;;;;;5086441;28;21077;-78
2022/05/10 01:50:42;;;;;;;7.43;6.73;;;13.00;99.90;;;;;;5092439;28;20437;-76
2022/05/10 01:53:35;;;;;;;6.80;5.70;;;13.00;99.90;;;;;;5077990;28;20451;-76
2022/05/10 01:56:24;;;;;;;7.13;6.43;;;13.00;99.90;;;;;;5087339;28;20425;-76
2022/05/10 01:59:11;;;;;;;11.50;6.73;;;12.90;99.90;;;;;;5086750;28;20965;-76
2022/05/10 02:01:59;;;;;;;7.53;6.60;;;12.90;99.90;;;;;;5081850;28;20497;-76
2022/05/10 02:04:49;;;;;;;12.43;6.87;;;13.00;99.90;;;;;;5083074;28;20980;-76
2022/05/10 02:07:35;;;;;;;6.90;6.20;;;13.00;99.90;;;;;;5087955;28;20543;-77
2022/05/10 02:10:26;;;;;;;8.77;7.33;;;13.00;99.90;;;;;;5082959;28;20420;-76
2022/05/10 02:13:15;;;;;;;7.67;6.90;;;13.10;99.90;;;;;;5087993;28;20416;-76
2022/05/10 02:16:04;;;;;;;9.10;6.90;;;13.00;99.90;;;;;;5093135;28;20815;-76
2022/05/10 02:18:56;;;;;;;8.30;6.33;;;12.90;99.90;;;;;;5093151;28;20465;-76
2022/05/10 02:21:47;;;;;;;7.80;7.07;;;12.80;99.90;;;;;;5089858;28;20838;-76
2022/05/10 02:24:40;;;;;;;7.70;6.83;;;12.80;99.90;;;;;;5089503;28;20416;-76
2022/05/10 02:27:31;;;;;;;8.33;6.53;;;12.80;99.90;;;;;;5088543;28;20871;-76
2022/05/10 02:30:20;;;;;;;7.20;6.50;;;12.80;99.90;;;;;;5087678;28;20973;-76
2022/05/10 02:33:08;;;;;;;10.97;7.50;;;12.70;99.90;;;;;;5086890;28;21009;-76
2022/05/10 02:35:57;;;;;;;8.70;7.40;;;12.70;99.90;;;;;;5084994;28;20536;-76
2022/05/10 02:38:45;;;;;;;8.70;7.50;;;12.60;99.90;;;;;;5092737;28;20436;-76
2022/05/10 02:41:31;;;;;;;9.13;8.23;;;12.60;99.90;;;;;;5083670;28;21130;-76
2022/05/10 02:44:16;;;;;;;8.40;6.90;;;12.50;99.90;;;;;;5089287;28;20473;-76
2022/05/10 02:47:02;;;;;;;9.50;7.50;;;12.50;99.90;;;;;;5091297;28;20457;-76
2022/05/10 02:49:47;;;;;;;8.83;6.70;;;12.40;99.90;;;;;;5086395;28;20433;-76
2022/05/10 02:52:33;;;;;;;7.77;6.30;;;12.50;99.90;;;;;;5086609;28;20441;-76
2022/05/10 02:55:26;;;;;;;7.27;6.47;;;12.50;99.90;;;;;;5089742;28;20440;-76
2022/05/10 02:58:19;;;;;;;8.33;6.40;;;12.60;99.90;;;;;;5084914;28;20443;-76
2022/05/10 03:01:10;;;;;;;9.03;7.80;;;12.70;99.90;;;;;;5089078;28;20539;-76
2022/05/10 03:03:56;;;;;;;7.80;7.00;;;12.70;99.90;;;;;;5092812;28;20474;-76
2022/05/10 03:06:44;;;;;;;7.60;6.83;;;12.60;99.90;;;;;;5088044;28;20389;-76
2022/05/10 03:09:31;;;;;;;7.60;6.80;;;12.60;99.90;;;;;;5094236;28;20449;-76
2022/05/10 03:12:18;;;;;;;7.80;7.00;;;12.70;99.90;;;;;;5080246;28;20450;-77
2022/05/10 03:15:04;;;;;;;8.47;6.90;;;12.50;99.90;;;;;;5090344;28;20429;-76
2022/05/10 03:17:50;;;;;;;9.03;6.20;;;12.50;99.90;;;;;;5091339;28;20574;-76
2022/05/10 03:20:35;;;;;;;6.90;6.20;;;12.40;99.90;;;;;;5082557;28;20457;-76
2022/05/10 03:23:21;;;;;;;7.60;6.77;;;12.40;99.90;;;;;;5078263;28;20804;-76
2022/05/10 03:26:07;;;;;;;8.50;6.50;;;12.40;99.90;;;;;;5083313;28;20813;-75
2022/05/10 03:28:55;;;;;;;7.50;6.70;;;12.40;99.90;;;;;;5089188;28;20556;-76
2022/05/10 03:31:41;;;;;;;11.90;7.03;;;12.40;99.90;;;;;;5079830;28;20445;-76
2022/05/10 03:37:31;;;;;;;10.90;6.70;;;12.40;99.90;;;;;;5089055;28;20478;-76
2022/05/10 03:40:17;;;;;;;8.37;6.87;;;12.30;99.90;;;;;;5082638;28;20424;-76
2022/05/10 03:43:03;;;;;;;7.20;6.27;;;12.30;99.90;;;;;;5085284;28;20466;-76
2022/05/10 03:45:50;;;;;;;8.17;7.17;;;12.30;99.90;;;;;;5089092;28;20460;-76
2022/05/10 03:48:36;;;;;;;6.57;5.97;;;12.30;99.90;;;;;;5085887;28;20449;-76
2022/05/10 03:51:22;;;;;;;7.00;6.30;;;12.20;99.90;;;;;;5084740;28;20948;-76
2022/05/10 03:54:07;;;;;;;6.97;6.27;;;12.20;99.90;;;;;;5082580;28;20392;-77
2022/05/10 03:56:53;;;;;;;8.43;5.83;;;12.20;99.90;;;;;;5089850;28;21032;-76
2022/05/10 03:59:41;;;;;;;8.53;7.67;;;12.20;99.90;;;;;;5081024;28;20437;-76
2022/05/10 04:02:28;;;;;;;8.70;6.70;;;12.20;99.90;;;;;;5079117;28;20798;-76
2022/05/10 04:05:15;;;;;;;8.20;7.30;;;12.20;99.90;;;;;;5085981;28;20442;-76
2022/05/10 04:08:01;;;;;;;8.10;6.33;;;12.20;99.90;;;;;;5087313;28;20483;-76
2022/05/10 04:10:47;;;;;;;9.30;7.43;;;12.10;99.90;;;;;;5088254;28;20695;-76
2022/05/10 04:13:33;;;;;;;8.03;7.17;;;12.00;99.90;;;;;;5088767;28;20922;-76
2022/05/10 04:16:18;;;;;;;7.40;6.70;;;12.00;99.90;;;;;;5078943;28;20520;-76
2022/05/10 04:19:05;;;;;;;8.60;6.87;;;12.10;99.90;;;;;;5084726;28;20548;-78
2022/05/10 04:21:51;;;;;;;8.00;7.20;;;12.20;99.90;;;;;;5083437;28;20442;-76
2022/05/10 04:24:37;;;;;;;7.53;6.80;;;12.30;99.90;;;;;;5089001;28;20448;-75
2022/05/10 04:27:22;;;;;;;8.40;7.30;;;12.30;99.90;;;;;;5083590;28;20820;-76
2022/05/10 04:30:09;;;;;;;9.03;8.20;;;12.40;99.90;;;;;;5086785;28;20443;-78
2022/05/10 04:32:55;;;;;;;8.20;7.40;;;12.40;99.90;;;;;;5085139;28;20461;-78
2022/05/10 04:35:42;;;;;;;7.67;6.23;;;12.50;99.90;;;;;;5085709;28;20454;-76
2022/05/10 04:38:28;;;;;;;9.40;6.77;;;12.60;99.90;;;;;;5094320;28;20445;-76
2022/05/10 04:41:25;;;;;;;8.00;6.73;;;12.70;99.90;;;;;;5087040;28;20415;-76
2022/05/10 04:44:12;;;;;;;6.90;6.30;;;12.80;99.90;;;;;;5089968;28;20482;-76
2022/05/10 04:46:57;;;;;;;7.90;7.10;;;12.90;99.90;;;;;;5086960;28;20449;-75
2022/05/10 04:49:43;;;;;;;7.80;7.10;;;12.90;99.90;;;;;;5091198;28;20474;-77
2022/05/10 04:52:30;;;;;;;9.00;7.70;;;12.90;99.90;;;;;;5088759;28;20500;-76
2022/05/10 04:55:16;;;;;;;8.10;7.30;;;13.00;99.90;;;;;;5088925;28;20446;-77
2022/05/10 04:58:01;;;;;;;7.97;7.10;;;13.10;99.90;;;;;;5084924;28;20474;-78
2022/05/10 05:00:47;;;;;;;9.50;6.70;;;13.20;99.90;;;;;;5085449;28;20416;-77
2022/05/10 05:03:33;;;;;;;8.30;7.50;;;13.30;99.90;;;;;;5080415;28;20518;-77
2022/05/10 05:06:19;;;;;;;7.83;7.00;;;13.30;99.90;;;;;;5089527;28;21028;-78
2022/05/10 05:09:06;;;;;;;8.67;7.77;;;13.20;99.90;;;;;;5080078;28;20442;-78
2022/05/10 05:11:52;;;;;;;15.07;7.53;;;13.30;99.90;;;;;;5085495;28;20467;-77
2022/05/10 05:14:37;;;;;;;10.80;7.40;;;13.40;99.90;;;;;;5080779;28;20927;-77
2022/05/10 05:17:23;;;;;;;7.87;7.00;;;13.50;99.90;;;;;;5081236;28;20436;-77
2022/05/10 05:20:10;;;;;;;10.33;7.57;;;13.50;99.90;;;;;;5085591;28;21193;-78
2022/05/10 05:22:56;;;;;;;13.70;8.87;;;13.60;99.90;;;;;;5076727;28;20998;-77
2022/05/10 05:25:43;;;;;;;9.33;8.33;;;13.70;99.90;;;;;;5083623;28;22468;-77
2022/05/10 05:28:29;;;;;;;10.20;7.67;;;13.80;99.90;;;;;;5087705;28;20433;-77
2022/05/10 05:31:17;;;;;;;8.53;7.63;;;14.00;99.90;;;;;;5083210;28;20458;-77
2022/05/10 05:34:02;;;;;;;9.83;8.57;;;14.00;99.90;;;;;;5086023;28;20557;-78
2022/05/10 05:37:32;;;;;;;16.50;8.37;;;14.00;99.90;;;;;;5088742;28;20441;-77
2022/05/10 05:39:53;;;;;;;11.20;8.03;;;14.10;99.90;;;;;;5078546;28;20906;-78
2022/05/10 05:42:41;;;;;;;8.80;7.90;;;14.20;99.90;;;;;;5085048;28;20472;-77
2022/05/10 05:45:27;;;;;;;8.57;7.40;;;14.40;99.90;;;;;;5089773;28;20442;-77
2022/05/10 05:48:13;;;;;;;9.23;7.70;;;14.40;99.90;;;;;;5083755;28;20480;-77
2022/05/10 05:50:59;;;;;;;8.17;7.27;;;14.50;99.90;;;;;;5075078;28;20959;-77
2022/05/10 05:53:44;;;;;;;9.33;7.60;;;14.50;99.90;;;;;;5088417;28;20925;-77
2022/05/10 05:56:30;;;;;;;8.83;7.93;;;14.50;99.90;;;;;;5084381;28;20975;-77
2022/05/10 05:59:17;;;;;;;10.10;8.17;;;14.50;99.90;;;;;;5083041;28;20442;-77
2022/05/10 06:02:03;;;;;;;7.60;6.90;;;14.60;99.90;;;;;;5078421;28;20423;-77
2022/05/10 06:04:49;;;;;;;7.83;7.03;;;14.60;99.90;;;;;;5087391;28;20474;-77
2022/05/10 06:07:35;;;;;;;8.27;7.47;;;14.70;99.90;;;;;;5087839;28;20831;-78
2022/05/10 06:10:21;;;;;;;12.97;7.53;;;14.70;99.90;;;;;;5080486;28;20449;-77
2022/05/10 06:13:08;;;;;;;9.10;7.57;;;14.80;99.90;;;;;;5082773;28;20466;-77
2022/05/10 06:15:55;;;;;;;7.47;6.60;;;14.90;99.90;;;;;;5085201;28;20446;-78
2022/05/10 06:18:42;;;;;;;9.17;8.13;;;15.00;99.90;;;;;;5080103;28;20876;-77
2022/05/10 06:21:29;;;;;;;8.33;7.13;;;15.20;99.90;;;;;;5079907;28;20965;-78
2022/05/10 06:24:14;;;;;;;8.33;7.20;;;15.30;99.90;;;;;;5087169;28;20468;-77
2022/05/10 06:27:01;;;;;;;8.87;7.70;;;15.40;99.90;;;;;;5083501;28;20808;-77
2022/05/10 06:29:49;;;;;;;7.20;6.50;;;15.50;99.90;;;;;;5075649;28;20954;-77
2022/05/10 06:32:36;;;;;;;9.00;6.27;;;15.50;99.90;;;;;;5087716;28;20520;-77
2022/05/10 06:35:22;;;;;;;8.73;7.80;;;15.70;99.90;;;;;;5080847;28;20791;-77
2022/05/10 06:38:27;;;;;;;10.43;7.50;;;15.80;99.90;;;;;;5086065;28;20819;-77
2022/05/10 06:41:12;;;;;;;10.43;7.57;;;16.00;99.90;;;;;;5078286;28;20455;-77
2022/05/10 06:43:59;;;;;;;8.90;6.10;;;16.10;99.90;;;;;;5078094;28;20473;-78
2022/05/10 06:46:44;;;;;;;8.80;6.77;;;16.20;99.90;;;;;;5082362;28;20488;-76
2022/05/10 06:49:31;;;;;;;10.97;7.73;;;16.40;99.90;;;;;;5087429;28;20915;-77
2022/05/10 06:52:18;;;;;;;11.40;7.23;;;16.50;99.90;;;;;;5082624;28;20523;-77
2022/05/10 06:55:04;;;;;;;11.87;8.20;;;16.80;99.90;;;;;;5090996;28;20459;-77
2022/05/10 06:57:50;;;;;;;8.30;6.87;;;16.90;99.90;;;;;;5093288;28;20503;-76
2022/05/10 07:00:39;;;;;;;9.70;6.70;;;17.10;99.90;;;;;;5083185;28;20450;-76
2022/05/10 07:03:28;;;;;;;7.87;7.07;;;17.30;99.90;;;;;;5078716;28;20489;-76
2022/05/10 07:06:19;;;;;;;8.03;7.00;;;17.50;99.90;;;;;;5081688;28;20449;-76
2022/05/10 07:09:05;;;;;;;11.47;7.20;;;17.70;99.90;;;;;;5077633;28;20477;-77
2022/05/10 07:11:51;;;;;;;9.00;6.90;;;17.90;99.90;;;;;;5086007;28;20576;-77
2022/05/10 07:14:37;;;;;;;6.83;6.13;;;18.00;99.90;;;;;;5084887;28;20859;-76
2022/05/10 07:17:23;;;;;;;8.40;7.57;;;18.20;99.90;;;;;;5091084;28;20507;-77
2022/05/10 07:20:13;;;;;;;10.60;7.40;;;18.30;99.90;;;;;;5084311;28;20536;-76
2022/05/10 07:23:00;;;;;;;9.17;7.00;;;18.50;99.90;;;;;;5079194;28;20932;-76
2022/05/10 07:25:46;;;;;;;14.30;7.70;;;18.60;99.40;;;;;;5079882;28;20434;-77
2022/05/10 07:28:32;;;;;;;9.53;7.27;;;18.80;98.90;;;;;;5087593;28;20450;-76
2022/05/10 07:31:18;;;;;;;11.50;7.80;;;18.90;98.00;;;;;;5085672;28;20509;-76
2022/05/10 07:34:04;;;;;;;8.63;7.00;;;19.00;98.70;;;;;;5082200;28;20437;-77
2022/05/10 07:36:49;;;;;;;8.43;7.53;;;19.20;97.30;;;;;;5091647;28;20495;-76
2022/05/10 07:39:36;;;;;;;8.40;7.53;;;19.40;94.00;;;;;;5081744;28;20478;-76
2022/05/10 07:42:22;;;;;;;11.43;7.17;;;19.50;93.10;;;;;;5082587;28;20438;-76
2022/05/10 07:45:11;;;;;;;9.67;7.00;;;19.60;93.60;;;;;;5083817;28;20467;-76
2022/05/10 07:47:56;;;;;;;7.80;7.00;;;19.70;93.40;;;;;;5082058;28;20470;-77
2022/05/10 07:50:42;;;;;;;8.97;7.20;;;19.70;94.00;;;;;;5080550;28;20553;-77
2022/05/10 07:53:28;;;;;;;12.93;6.97;;;19.80;94.20;;;;;;5087786;28;20442;-77
2022/05/10 07:56:15;;;;;;;12.77;7.93;;;19.90;94.60;;;;;;5084093;28;20805;-76
2022/05/10 07:59:01;;;;;;;9.80;7.37;;;20.00;95.50;;;;;;5077976;28;20588;-76
2022/05/10 08:01:47;;;;;;;9.63;8.23;;;20.00;93.20;;;;;;5082925;28;20442;-77
2022/05/10 08:04:33;;;;;;;10.33;9.30;;;20.00;91.90;;;;;;5085563;28;20609;-76
2022/05/10 08:07:19;;;;;;;10.63;8.47;;;19.90;91.90;;;;;;5089035;28;20483;-76
2022/05/10 08:10:05;;;;;;;14.63;9.10;;;20.00;91.80;;;;;;5086345;28;20445;-77
2022/05/10 08:12:52;;;;;;;11.50;9.53;;;20.00;92.20;;;;;;5081010;28;20545;-78
2022/05/10 08:15:38;;;;;;;12.17;8.77;;;19.90;87.00;;;;;;5089210;28;20513;-77
2022/05/10 08:18:25;;;;;;;12.37;10.10;;;19.90;87.60;;;;;;5088733;28;20918;-77
2022/05/10 08:21:11;;;;;;;12.77;9.77;;;19.90;87.60;;;;;;5077661;28;20507;-76
2022/05/10 08:23:56;;;;;;;11.83;10.70;;;19.90;87.60;;;;;;5089571;28;20932;-76
2022/05/10 08:26:42;;;;;;;17.30;11.10;;;19.90;85.50;;;;;;5080564;28;20453;-75
2022/05/10 08:29:29;;;;;;;14.57;9.70;;;20.00;86.60;;;;;;5079140;28;20961;-75
2022/05/10 08:32:15;;;;;;;16.40;10.13;;;20.20;87.90;;;;;;5087491;28;20445;-75
2022/05/10 08:35:01;;;;;;;13.60;9.40;;;20.40;88.10;;;;;;5087239;28;20969;-75
2022/05/10 08:37:47;;;;;;;12.10;10.40;;;20.50;87.40;;;;;;5088384;28;20892;-75
2022/05/10 08:40:39;;;;;;;13.53;10.27;;;20.60;85.40;;;;;;5082813;28;20555;-75
2022/05/10 08:43:29;;;;;;;19.73;10.87;;;20.80;81.10;;;;;;5088123;28;20506;-75
2022/05/10 08:46:18;;;;;;;16.97;9.80;;;20.80;80.10;;;;;;5084949;28;20434;-78
2022/05/10 08:49:11;;;;;;;15.67;9.57;;;20.90;78.70;;;;;;5083514;28;20546;-76
2022/05/10 08:51:57;;;;;;;9.87;8.57;;;21.00;80.60;;;;;;5084235;28;20442;-75
2022/05/10 08:54:44;;;;;;;10.20;7.60;;;21.00;76.00;;;;;;5085201;28;20539;-76
2022/05/10 08:57:41;;;;;;;8.70;7.00;;;21.00;73.00;;;;;;5089648;28;20520;-75
2022/05/10 09:00:33;;;;;;;8.10;6.87;;;21.20;73.40;;;;;;5085236;28;20796;-77
2022/05/10 09:03:29;;;;;;;10.47;8.10;;;21.30;70.40;;;;;;5085510;28;20523;-75
2022/05/10 09:06:24;;;;;;;10.33;7.13;;;21.40;69.40;;;;;;5079458;28;20465;-76
2022/05/10 09:09:23;;;;;;;9.50;7.87;;;21.60;70.80;;;;;;5084396;28;20453;-75
2022/05/10 09:12:14;;;;;;;8.63;7.10;;;21.70;68.70;;;;;;5077335;28;20446;-75
2022/05/10 09:15:03;;;;;;;7.73;6.93;;;21.80;70.40;;;;;;5075740;28;20620;-75
2022/05/10 09:17:49;;;;;;;9.33;7.20;;;21.90;68.20;;;;;;5082242;28;20810;-75
2022/05/10 09:20:41;;;;;;;8.73;7.23;;;22.10;66.50;;;;;;5080757;28;20741;-75
2022/05/10 09:23:35;;;;;;;10.40;6.50;;;22.20;66.30;;;;;;5079930;28;20962;-75
2022/05/10 09:26:24;;;;;;;11.30;6.43;;;22.40;62.50;;;;;;5079912;28;20828;-75
2022/05/10 09:29:15;;;;;;;10.47;6.50;;;22.40;58.40;;;;;;5076380;28;20476;-75
2022/05/10 09:35:18;;;;;;;8.63;6.97;;;22.60;58.60;;;;;;5084798;28;20509;-75
2022/05/10 09:38:10;;;;;;;14.27;6.97;;;22.70;60.20;;;;;;5074060;28;20481;-75
2022/05/10 09:40:56;;;;;;;8.80;7.00;;;22.80;60.30;;;;;;5081921;28;20434;-75
2022/05/10 09:43:41;;;;;;;7.73;6.93;;;22.80;59.40;;;;;;5086136;28;20461;-75
2022/05/10 09:46:30;;;;;;;8.07;7.27;;;23.00;59.80;;;;;;5087896;28;20426;-75
2022/05/10 09:49:31;;;;;;;9.33;6.40;;;23.10;59.70;;;;;;5080199;28;20446;-76
2022/05/10 09:52:20;;;;;;;6.70;5.90;;;23.20;60.30;;;;;;5086004;28;20512;-75
2022/05/10 09:55:10;;;;;;;9.67;6.63;;;23.30;60.30;;;;;;5079086;28;20499;-75
2022/05/10 09:57:59;;;;;;;7.57;6.33;;;23.40;59.00;;;;;;5081994;28;20535;-76
2022/05/10 10:00:51;;;;;;;7.97;6.63;;;23.50;57.00;;;;;;5080711;28;20426;-76
2022/05/10 10:03:41;;;;;;;7.20;6.30;;;23.50;52.50;;;;;;5090021;28;20444;-75
2022/05/10 10:06:27;;;;;;;7.60;6.50;;;23.30;53.90;;;;;;5081497;28;21002;-75
2022/05/10 10:09:30;;;;;;;7.70;6.20;;;23.30;54.60;;;;;;5086129;28;20575;-75
2022/05/10 10:12:30;;;;;;;7.20;6.10;;;23.30;56.20;;;;;;5084961;28;21097;-75
2022/05/10 10:15:25;;;;;;;11.80;7.50;;;23.30;54.60;;;;;;5081439;28;20452;-76
2022/05/10 10:18:13;;;;;;;10.67;7.77;;;23.30;56.80;;;;;;5081745;28;20547;-76
2022/05/10 10:20:59;;;;;;;9.60;6.70;;;23.40;57.00;;;;;;5087486;28;20421;-76
2022/05/10 10:23:49;;;;;;;7.70;6.30;;;23.50;57.70;;;;;;5076241;28;20565;-75
2022/05/10 10:26:41;;;;;;;8.90;5.97;;;23.50;54.20;;;;;;5074334;28;20488;-76
2022/05/10 10:29:37;;;;;;;12.90;7.83;;;23.60;57.20;;;;;;5086435;28;20464;-75
2022/05/10 10:32:29;;;;;;;8.40;6.87;;;23.70;57.30;;;;;;5087329;28;20449;-75
2022/05/10 10:35:18;;;;;;;7.10;6.40;;;23.90;56.00;;;;;;5088546;28;20458;-75
2022/05/10 10:38:15;;;;;;;7.47;6.67;;;23.90;55.70;;;;;;5081429;28;20477;-75
2022/05/10 10:41:04;;;;;;;9.20;6.90;;;23.90;53.30;;;;;;5083001;28;20523;-76
2022/05/10 10:43:59;;;;;;;8.23;6.10;;;24.10;55.80;;;;;;5092085;28;20794;-75
2022/05/10 10:46:54;;;;;;;8.70;7.33;;;24.30;53.70;;;;;;5090851;28;20441;-75
2022/05/10 10:49:46;;;;;;;12.80;6.87;;;24.40;53.20;;;;;;5083703;28;20595;-75
2022/05/10 10:52:32;;;;;;;10.90;6.57;;;24.50;51.30;;;;;;5086658;28;20879;-75
2022/05/10 10:55:19;;;;;;;6.20;5.60;;;24.50;52.50;;;;;;5083720;28;20419;-75
2022/05/10 10:58:13;;;;;;;7.03;6.33;;;24.60;53.00;;;;;;5082547;28;20481;-75
2022/05/10 11:01:13;;;;;;;8.23;6.27;;;24.70;53.60;;;;;;5088867;28;20441;-76
2022/05/10 11:04:19;;;;;;;7.13;5.90;;;24.80;54.90;;;;;;5092159;28;20434;-76
2022/05/10 11:07:13;;;;;;;7.30;6.53;;;24.90;52.30;;;;;;5084117;28;20656;-76
2022/05/10 11:10:06;;;;;;;10.60;5.90;;;25.10;50.20;;;;;;5074488;28;20443;-75
2022/05/10 11:12:59;;;;;;;13.97;6.53;;;25.10;49.60;;;;;;5079750;28;20450;-75
2022/05/10 11:15:54;;;;;;;6.73;6.03;;;25.20;47.40;;;;;;5086795;28;20441;-76
2022/05/10 11:18:57;;;;;;;8.43;6.43;;;25.20;44.30;;;;;;5089653;28;20486;-74
2022/05/10 11:21:50;;;;;;;8.03;5.90;;;25.00;44.90;;;;;;5090329;28;20437;-75
2022/05/10 11:24:43;;;;;;;5.90;5.27;;;25.10;47.70;;;;;;5091199;28;20438;-76
2022/05/10 11:27:43;;;;;;;7.90;5.10;;;25.20;45.10;;;;;;5087033;28;20556;-75
2022/05/10 11:30:38;;;;;;;11.43;5.23;;;25.30;43.00;;;;;;5090214;28;20450;-76
2022/05/10 11:33:34;;;;;;;6.33;5.73;;;25.30;43.70;;;;;;5088359;28;20446;-75
2022/05/10 11:36:28;;;;;;;7.60;5.40;;;25.40;46.00;;;;;;5085720;28;20479;-76
2022/05/10 11:40:02;;;;;;;6.80;5.37;;;25.50;42.80;;;;;;5080476;28;20932;-76
2022/05/10 11:43:09;;;;;;;5.10;4.60;;;25.70;45.10;;;;;;5089000;28;20442;-76
2022/05/10 11:46:37;;;;;;;6.73;5.40;;;25.80;40.30;;;;;;5086505;28;23088;-76
2022/05/10 11:49:55;;;;;;;5.40;4.33;;;25.80;40.60;;;;;;5065657;28;20811;-75
2022/05/10 11:53:09;;;;;;;10.10;5.50;;;25.70;36.40;;;;;;5052766;28;20507;-76
2022/05/10 11:55:59;;;;;;;10.00;5.43;;;25.80;38.10;;;;;;5086007;28;20442;-75
2022/05/10 11:58:45;;;;;;;6.13;5.53;;;25.90;40.00;;;;;;5087581;28;20465;-76
2022/05/10 12:01:44;;;;;;;8.33;5.17;;;25.80;42.10;;;;;;5082565;28;20812;-76
2022/05/10 12:04:38;;;;;;;6.80;5.93;;;25.90;40.60;;;;;;5090800;28;20892;-76
2022/05/10 12:07:35;;;;;;;6.00;5.30;;;25.90;41.70;;;;;;5081422;28;20478;-76
2022/05/10 12:10:40;;;;;;;9.23;6.00;;;25.90;39.70;;;;;;5084874;28;20451;-76
2022/05/10 12:23:15;;;;;;;6.73;5.70;;;25.80;42.90;;;;;;5081795;28;20597;-76
2022/05/10 12:26:00;;;;;;;9.23;6.13;;;25.70;40.10;;;;;;5086769;28;20461;-76
2022/05/10 12:28:49;;;;;;;6.73;6.03;;;25.70;42.50;;;;;;5090841;28;20469;-76
2022/05/10 12:32:02;;;;;;;12.63;6.00;;;25.80;40.90;;;;;;5078635;28;20650;-75
2022/05/10 12:34:53;;;;;;;7.63;5.80;;;25.80;42.10;;;;;;5083480;28;20913;-75
2022/05/10 12:37:52;;;;;;;8.27;6.20;;;25.70;40.30;;;;;;5080571;28;20501;-76
2022/05/10 12:40:57;;;;;;;10.43;6.37;;;25.50;40.90;;;;;;5086128;28;20446;-76
2022/05/10 12:44:09;;;;;;;8.50;6.10;;;25.50;40.70;;;;;;5087102;28;20457;-75
2022/05/10 12:47:10;;;;;;;7.27;6.43;;;25.30;40.40;;;;;;5075213;28;20481;-75
2022/05/10 12:50:08;;;;;;;10.00;6.33;;;25.30;42.60;;;;;;5086315;28;20426;-76
2022/05/10 12:52:54;;;;;;;8.30;6.47;;;25.30;42.80;;;;;;5087376;28;20967;-76
2022/05/10 12:55:42;;;;;;;7.63;6.30;;;25.30;44.60;;;;;;5081443;28;20449;-76
2022/05/10 12:58:34;;;;;;;9.23;5.67;;;25.20;45.00;;;;;;5077045;28;20903;-76
2022/05/10 13:01:25;;;;;;;9.33;6.50;;;25.10;44.40;;;;;;5081000;28;20537;-76
2022/05/10 13:04:15;;;;;;;15.13;5.90;;;25.00;41.80;;;;;;5082852;28;20596;-76
2022/05/10 13:07:06;;;;;;;7.40;5.87;;;24.90;43.80;;;;;;5079652;28;20486;-77
2022/05/10 13:09:55;;;;;;;7.37;5.80;;;24.80;44.70;;;;;;5085949;28;20970;-73
2022/05/10 13:12:43;;;;;;;9.90;5.43;;;24.70;44.10;;;;;;5088822;28;20993;-74
2022/05/10 13:15:30;;;;;;;11.80;5.33;;;24.70;43.80;;;;;;5078062;28;20437;-74
2022/05/10 13:18:20;;;;;;;8.87;5.33;;;24.80;46.50;;;;;;5082552;28;20838;-74
2022/05/10 13:21:06;;;;;;;5.57;4.67;;;24.80;44.70;;;;;;5082518;28;20560;-75
2022/05/10 13:23:53;;;;;;;10.90;9.03;;;24.90;46.50;;;;;;5081051;28;20437;-75
2022/05/10 13:26:51;;;;;;;7.73;6.93;;;25.00;44.90;;;;;;5074427;28;20842;-75
2022/05/10 13:29:38;;;;;;;8.10;4.80;;;25.20;45.30;;;;;;5085461;28;20825;-75
2022/05/10 13:32:34;;;;;;;9.13;7.43;;;25.30;43.20;;;;;;5079719;28;20554;-75
2022/05/10 13:35:23;;;;;;;6.60;5.50;;;25.50;43.90;;;;;;5077329;28;20949;-75
2022/05/10 13:38:15;;;;;;;6.97;5.53;;;25.50;43.70;;;;;;5078702;28;20478;-75
2022/05/10 13:41:03;;;;;;;7.10;5.70;;;25.70;42.10;;;;;;5080547;28;20422;-76
2022/05/10 13:43:52;;;;;;;7.00;6.00;;;25.60;42.50;;;;;;5083046;28;20427;-75
2022/05/10 13:46:46;;;;;;;6.23;5.50;;;25.70;44.10;;;;;;5080087;28;20996;-75
2022/05/10 13:49:38;;;;;;;7.60;5.63;;;25.60;41.40;;;;;;5082283;28;20433;-75
2022/05/10 13:52:32;;;;;;;10.23;5.60;;;25.70;41.30;;;;;;5079645;28;20441;-75
2022/05/10 13:55:20;;;;;;;8.80;5.57;;;25.70;41.90;;;;;;5077052;28;20446;-75
2022/05/10 13:58:08;;;;;;;7.77;5.53;;;25.80;41.00;;;;;;5085897;28;20528;-75
2022/05/10 14:00:54;;;;;;;5.90;5.40;;;25.90;43.80;;;;;;5085010;28;20576;-75
2022/05/10 14:03:40;;;;;;;7.73;5.93;;;26.00;43.30;;;;;;5090217;28;20475;-75
2022/05/10 14:06:29;;;;;;;19.87;6.13;;;26.10;42.30;;;;;;5089027;28;20600;-76
2022/05/10 14:09:24;;;;;;;6.57;5.80;;;26.10;40.90;;;;;;5089399;28;20933;-75
2022/05/10 14:12:14;;;;;;;8.37;5.20;;;26.10;42.60;;;;;;5084500;28;20990;-76
2022/05/10 14:15:18;;;;;;;6.97;6.27;;;26.20;41.40;;;;;;5086391;28;20511;-75
2022/05/10 14:18:08;;;;;;;6.53;5.90;;;26.10;41.60;;;;;;5092736;28;20441;-75
2022/05/10 14:20:55;;;;;;;6.47;5.23;;;26.10;41.30;;;;;;5091684;28;20458;-76
2022/05/10 14:23:41;;;;;;;6.93;6.10;;;26.10;43.90;;;;;;5092955;28;20425;-75
2022/05/10 14:26:34;;;;;;;7.27;5.87;;;26.10;42.00;;;;;;5081144;28;20485;-75
2022/05/10 14:29:28;;;;;;;6.00;5.40;;;26.10;40.60;;;;;;5087609;28;20505;-75
2022/05/10 14:32:29;;;;;;;6.50;5.10;;;26.10;39.10;;;;;;5089950;28;20453;-75
2022/05/10 14:35:25;;;;;;;8.77;5.37;;;26.00;39.40;;;;;;5085362;28;20973;-76
2022/05/10 14:38:19;;;;;;;6.20;5.50;;;26.00;41.10;;;;;;5082504;28;20524;-75
2022/05/10 14:41:05;;;;;;;6.60;5.50;;;26.00;41.90;;;;;;5091374;28;20568;-75
2022/05/10 14:43:52;;;;;;;8.10;5.60;;;26.00;40.60;;;;;;5082119;28;20425;-75
2022/05/10 14:46:51;;;;;;;7.07;4.90;;;25.90;41.20;;;;;;5089208;28;20465;-76
2022/05/10 14:49:39;;;;;;;9.30;5.60;;;25.80;40.40;;;;;;5089167;28;20446;-75
2022/05/10 14:52:30;;;;;;;7.37;5.23;;;25.70;41.30;;;;;;5084944;28;21002;-75
2022/05/10 14:55:33;;;;;;;7.33;4.80;;;25.60;40.00;;;;;;5078676;28;20450;-75
2022/05/10 14:58:28;;;;;;;11.90;5.50;;;25.50;40.10;;;;;;5087824;28;20446;-75
2022/05/10 15:01:33;;;;;;;5.73;5.13;;;25.40;43.20;;;;;;5079959;28;20437;-75